Time;durP1;ratioP1;P1;durP2;ratioP2;P2;SDS_P1;SDS_P2;PMS_P1;PMS_P2;Temp;Humidity;BMP_temperature;BMP_pressure;BME280_temperature;BME280_humidity;BME280_pressure;Samples;Min_cycle;Max_cycle;Signal;HPM_P1;HPM_P2
2023/04/13 00:00:09;;;;;;;18.38;10.43;;;22.50;58.70;;;;;;4841058;29;20038;-67
2023/04/13 00:02:39;;;;;;;14.60;9.68;;;22.60;58.80;;;;;;4841181;29;20094;-67
2023/04/13 00:05:06;;;;;;;16.95;10.07;;;22.60;58.80;;;;;;4840400;29;20058;-67
2023/04/13 00:07:32;;;;;;;13.90;9.02;;;22.50;58.70;;;;;;4841063;29;20045;-67
2023/04/13 00:10:02;;;;;;;18.65;11.27;;;22.60;58.60;;;;;;4840881;29;20141;-66
2023/04/13 00:12:28;;;;;;;16.15;9.93;;;22.70;58.60;;;;;;4840895;29;20120;-68
2023/04/13 00:14:54;;;;;;;14.43;9.73;;;22.50;58.50;;;;;;4839604;29;20117;-67
2023/04/13 00:17:20;;;;;;;14.70;9.45;;;22.70;58.60;;;;;;4840877;29;20121;-67
2023/04/13 00:19:52;;;;;;;15.90;9.38;;;22.50;58.60;;;;;;4840758;29;20042;-66
2023/04/13 00:22:21;;;;;;;11.30;8.77;;;22.50;58.70;;;;;;4840538;29;20073;-67
2023/04/13 00:24:47;;;;;;;15.43;9.10;;;22.50;58.60;;;;;;4840815;29;20034;-67
2023/04/13 00:27:13;;;;;;;13.50;9.20;;;22.50;58.60;;;;;;4838887;29;20069;-67
2023/04/13 00:29:39;;;;;;;16.17;9.02;;;22.50;58.60;;;;;;4838830;29;20049;-68
2023/04/13 00:32:06;;;;;;;13.73;9.43;;;22.50;58.70;;;;;;4840221;29;20113;-67
2023/04/13 00:34:32;;;;;;;12.27;8.43;;;22.50;58.80;;;;;;4838958;29;20034;-66
2023/04/13 00:37:01;;;;;;;14.48;9.27;;;22.40;58.70;;;;;;4824250;29;20163;-67
2023/04/13 00:39:30;;;;;;;14.77;8.05;;;22.30;58.70;;;;;;4824248;29;20038;-67
2023/04/13 00:42:00;;;;;;;16.58;9.80;;;22.40;58.70;;;;;;4840477;29;20517;-67
2023/04/13 00:44:27;;;;;;;11.57;8.45;;;22.50;58.80;;;;;;4838785;29;20560;-67
2023/04/13 00:46:53;;;;;;;12.88;8.77;;;22.50;58.80;;;;;;4852224;29;20041;-67
2023/04/13 00:49:23;;;;;;;16.05;9.15;;;22.40;58.60;;;;;;4857683;29;20041;-67
2023/04/13 00:51:49;;;;;;;12.70;8.75;;;22.50;58.80;;;;;;4857602;29;20033;-67
2023/04/13 00:54:17;;;;;;;13.15;8.02;;;22.40;58.60;;;;;;4858695;29;20157;-67
2023/04/13 00:56:45;;;;;;;12.80;7.85;;;22.50;58.70;;;;;;4857319;29;20045;-66
2023/04/13 00:59:12;;;;;;;13.70;8.77;;;22.60;58.60;;;;;;4841860;29;20045;-67
2023/04/13 01:01:55;;;;;;;11.85;7.55;;;22.50;58.60;;;;;;4857130;29;20478;-66
2023/04/13 01:04:26;;;;;;;11.77;8.60;;;22.50;58.80;;;;;;4857183;29;20029;-67
2023/04/13 01:07:31;;;;;;;15.02;8.80;;;22.30;58.60;;;;;;4841599;29;20057;-67
2023/04/13 01:10:06;;;;;;;15.48;8.55;;;22.50;58.70;;;;;;4786029;29;20042;-67
2023/04/13 01:12:46;;;;;;;14.48;9.00;;;22.60;58.80;;;;;;4771377;29;20043;-67
2023/04/13 01:15:15;;;;;;;14.13;9.02;;;22.40;58.70;;;;;;4786182;29;20162;-67
2023/04/13 01:17:50;;;;;;;10.65;8.23;;;22.30;58.70;;;;;;4783138;29;20203;-67
2023/04/13 01:20:24;;;;;;;14.23;8.63;;;22.50;58.90;;;;;;4768186;29;20052;-67
2023/04/13 01:23:03;;;;;;;12.27;8.18;;;22.30;58.80;;;;;;4768326;29;20051;-67
2023/04/13 01:25:57;;;;;;;11.85;8.68;;;22.30;58.70;;;;;;4783100;29;20097;-67
2023/04/13 01:28:24;;;;;;;12.35;7.53;;;22.30;58.70;;;;;;4783082;29;20077;-67
2023/04/13 01:30:52;;;;;;;14.20;8.35;;;22.40;58.80;;;;;;4782464;29;20541;-67
2023/04/13 01:33:21;;;;;;;12.65;8.73;;;22.30;58.80;;;;;;4783794;29;20043;-67
2023/04/13 01:35:49;;;;;;;11.82;8.00;;;22.30;58.70;;;;;;4786471;29;20053;-67
2023/04/13 01:38:23;;;;;;;13.70;8.82;;;22.30;58.60;;;;;;4786514;29;20051;-67
2023/04/13 01:40:51;;;;;;;12.95;7.75;;;22.40;58.70;;;;;;4786245;29;20047;-67
2023/04/13 01:43:22;;;;;;;12.48;7.95;;;22.40;58.70;;;;;;4771666;29;20066;-67
2023/04/13 01:46:06;;;;;;;11.20;8.68;;;22.40;58.70;;;;;;4810226;29;20431;-67
2023/04/13 01:48:50;;;;;;;14.63;8.13;;;22.40;58.60;;;;;;4830348;29;20056;-67
2023/04/13 01:51:41;;;;;;;13.27;8.02;;;22.40;58.60;;;;;;4840405;29;20042;-67
2023/04/13 01:54:16;;;;;;;10.85;8.10;;;22.40;58.70;;;;;;4825445;29;20487;-67
2023/04/13 01:56:45;;;;;;;11.52;7.78;;;22.40;58.80;;;;;;4807246;29;20380;-66
2023/04/13 01:59:12;;;;;;;11.30;8.73;;;22.30;58.70;;;;;;4807269;29;20047;-66
2023/04/13 02:01:42;;;;;;;9.07;6.82;;;22.40;58.70;;;;;;4806856;29;20046;-67
2023/04/13 02:04:09;;;;;;;12.18;7.47;;;22.20;58.50;;;;;;4791966;29;20133;-67
2023/04/13 02:06:37;;;;;;;14.95;7.97;;;22.30;58.70;;;;;;4806916;29;20585;-67
2023/04/13 02:09:05;;;;;;;10.30;7.93;;;22.30;58.60;;;;;;4806887;29;20538;-67
2023/04/13 02:11:33;;;;;;;13.35;8.07;;;22.20;58.70;;;;;;4806966;29;20061;-67
2023/04/13 02:14:02;;;;;;;11.25;8.30;;;22.30;58.60;;;;;;4821968;29;20568;-67
2023/04/13 02:16:29;;;;;;;14.77;8.45;;;22.30;58.70;;;;;;4806796;29;20366;-67
2023/04/13 02:18:58;;;;;;;10.20;7.93;;;22.20;58.50;;;;;;4822043;29;20050;-67
2023/04/13 02:21:24;;;;;;;13.23;8.70;;;22.30;58.70;;;;;;4796663;29;20046;-67
2023/04/13 02:23:53;;;;;;;12.77;7.68;;;22.30;58.70;;;;;;4843183;29;20131;-67
2023/04/13 02:26:21;;;;;;;10.50;7.80;;;22.20;58.60;;;;;;4843104;29;20045;-67
2023/04/13 02:28:50;;;;;;;13.70;8.18;;;22.20;58.60;;;;;;4803462;29;20062;-67
2023/04/13 02:31:18;;;;;;;9.88;7.20;;;22.30;58.80;;;;;;4803493;29;20050;-67
2023/04/13 02:33:46;;;;;;;11.65;7.75;;;22.20;58.70;;;;;;4809205;29;20069;-67
2023/04/13 02:36:12;;;;;;;13.15;8.23;;;22.20;58.60;;;;;;4821744;29;20049;-67
2023/04/13 02:38:47;;;;;;;12.63;8.10;;;22.20;58.70;;;;;;4804709;29;20515;-66
2023/04/13 02:41:28;;;;;;;10.75;7.85;;;22.20;58.70;;;;;;4803397;29;20050;-67
2023/04/13 02:43:56;;;;;;;12.40;8.25;;;22.10;58.80;;;;;;4803043;29;20062;-66
2023/04/13 02:46:24;;;;;;;11.70;8.02;;;22.10;58.80;;;;;;4811541;29;20050;-67
2023/04/13 02:48:58;;;;;;;13.02;9.13;;;22.00;58.70;;;;;;4821485;29;20403;-67
2023/04/13 02:51:27;;;;;;;14.48;8.38;;;22.10;58.90;;;;;;4821340;29;20046;-67
2023/04/13 02:53:54;;;;;;;15.52;7.95;;;22.00;58.90;;;;;;4821412;29;20121;-67
2023/04/13 02:56:22;;;;;;;12.70;7.15;;;22.00;58.90;;;;;;4821155;29;20100;-67
2023/04/13 02:58:53;;;;;;;15.45;8.40;;;22.00;58.90;;;;;;4825940;29;20123;-66
2023/04/13 03:01:19;;;;;;;13.95;8.93;;;21.90;58.90;;;;;;4842447;29;20061;-66
2023/04/13 03:03:45;;;;;;;13.80;8.77;;;22.00;59.10;;;;;;4842133;29;20577;-67
2023/04/13 03:06:11;;;;;;;14.35;8.25;;;22.00;59.00;;;;;;4842112;29;20089;-67
2023/04/13 03:08:45;;;;;;;12.15;8.43;;;21.90;59.00;;;;;;4842355;29;20518;-66
2023/04/13 03:11:22;;;;;;;13.50;8.07;;;22.00;59.00;;;;;;4842307;29;20047;-67
2023/04/13 03:14:28;;;;;;;13.48;8.93;;;21.90;58.90;;;;;;4802678;29;20047;-67
2023/04/13 03:17:00;;;;;;;12.90;7.78;;;22.00;58.90;;;;;;4787686;29;20519;-67
2023/04/13 03:19:35;;;;;;;14.43;8.57;;;22.10;58.90;;;;;;4787679;29;20119;-67
2023/04/13 03:22:01;;;;;;;14.05;8.98;;;22.10;58.90;;;;;;4802691;29;20662;-66
2023/04/13 03:24:29;;;;;;;12.90;8.05;;;22.00;58.80;;;;;;4787458;29;20046;-67
2023/04/13 03:27:01;;;;;;;11.15;8.63;;;22.00;58.70;;;;;;4772345;29;20050;-67
2023/04/13 03:29:36;;;;;;;11.95;8.00;;;22.10;58.70;;;;;;4787762;29;20039;-67
2023/04/13 03:32:03;;;;;;;11.93;8.07;;;22.00;58.60;;;;;;4787247;29;20042;-67
2023/04/13 03:34:32;;;;;;;11.60;8.38;;;22.00;58.70;;;;;;4787429;29;20424;-67
2023/04/13 03:37:01;;;;;;;13.18;8.68;;;22.00;58.60;;;;;;4787537;29;20050;-66
2023/04/13 03:39:28;;;;;;;17.23;8.95;;;22.00;58.60;;;;;;4802626;29;20087;-67
2023/04/13 03:41:54;;;;;;;13.48;9.30;;;22.00;58.60;;;;;;4802489;29;20587;-67
2023/04/13 03:44:21;;;;;;;16.73;9.93;;;21.90;58.60;;;;;;4802232;29;20169;-67
2023/04/13 03:46:47;;;;;;;13.57;9.10;;;22.00;58.60;;;;;;4802084;29;20527;-67
2023/04/13 03:49:30;;;;;;;;;;;21.90;58.70;;;;;;4826162;29;20477;-66
2023/04/13 03:51:57;;;;;;;13.40;8.55;;;21.80;58.70;;;;;;4841507;29;19919;-66
2023/04/13 03:54:25;;;;;;;16.00;9.15;;;22.10;58.60;;;;;;4841605;29;20577;-66
2023/04/13 03:56:52;;;;;;;11.02;8.35;;;22.00;58.30;;;;;;4856468;29;20087;-67
2023/04/13 03:59:18;;;;;;;9.90;7.93;;;22.20;58.30;;;;;;4841560;29;20690;-66
2023/04/13 04:01:44;;;;;;;19.75;9.55;;;22.10;58.10;;;;;;4856873;29;20053;-68
2023/04/13 04:04:10;;;;;;;15.13;9.52;;;22.30;57.80;;;;;;4856656;29;20041;-67
2023/04/13 04:06:36;;;;;;;15.45;9.07;;;22.30;60.40;;;;;;4856518;29;20093;-67
2023/04/13 04:09:20;;;;;;;17.70;9.85;;;22.40;61.30;;;;;;4856892;29;20041;-68
2023/04/13 04:11:47;;;;;;;15.20;9.57;;;22.60;63.90;;;;;;4856530;29;20172;-67
2023/04/13 04:14:19;;;;;;;16.90;9.30;;;22.90;67.80;;;;;;4856659;29;20512;-68
2023/04/13 04:16:52;;;;;;;14.20;10.15;;;23.00;66.90;;;;;;4856165;29;20549;-67
2023/04/13 04:19:18;;;;;;;12.43;8.07;;;23.20;65.20;;;;;;4857787;29;20041;-69
2023/04/13 04:21:45;;;;;;;15.35;10.13;;;23.00;62.50;;;;;;4857761;29;20046;-69
2023/04/13 04:24:21;;;;;;;12.65;9.43;;;22.80;61.80;;;;;;4857698;29;20517;-69
2023/04/13 04:26:53;;;;;;;16.92;9.15;;;22.70;62.10;;;;;;4857884;29;20033;-68
2023/04/13 04:29:21;;;;;;;13.15;8.38;;;22.60;62.10;;;;;;4857699;29;20490;-69
2023/04/13 04:31:51;;;;;;;11.70;7.00;;;22.60;61.70;;;;;;4833154;29;20042;-69
2023/04/13 04:34:20;;;;;;;12.90;7.18;;;22.50;62.20;;;;;;4824170;29;20768;-69
2023/04/13 04:36:50;;;;;;;8.57;6.72;;;22.60;61.60;;;;;;4840739;29;20124;-69
2023/04/13 04:39:22;;;;;;;10.00;7.10;;;22.70;60.60;;;;;;4839263;29;20046;-69
2023/04/13 04:42:01;;;;;;;11.10;7.15;;;22.80;59.40;;;;;;4824958;29;20648;-69
2023/04/13 04:44:32;;;;;;;11.50;7.00;;;22.90;58.70;;;;;;4839351;29;20050;-67
2023/04/13 04:47:03;;;;;;;11.70;7.22;;;22.80;57.70;;;;;;4839204;29;20041;-69
2023/04/13 04:49:33;;;;;;;11.35;6.72;;;22.90;57.10;;;;;;4839380;29;20038;-70
2023/04/13 04:52:00;;;;;;;9.25;7.25;;;22.90;56.40;;;;;;4839563;29;20034;-69
2023/04/13 04:54:26;;;;;;;9.85;7.60;;;22.80;55.40;;;;;;4857395;29;20045;-70
2023/04/13 04:56:52;;;;;;;6.65;4.55;;;22.90;55.30;;;;;;4858981;29;20037;-69
2023/04/13 04:59:20;;;;;;;5.55;4.38;;;22.90;54.40;;;;;;4842362;29;20541;-69
2023/04/13 05:01:55;;;;;;;5.72;4.22;;;22.80;53.10;;;;;;4857654;29;20090;-69
2023/04/13 05:04:21;;;;;;;13.35;8.45;;;22.70;52.20;;;;;;4858927;29;20125;-67
2023/04/13 05:06:48;;;;;;;11.85;8.25;;;22.70;51.40;;;;;;4857623;29;20502;-68
2023/04/13 05:09:19;;;;;;;11.27;8.38;;;22.80;49.40;;;;;;4859385;29;20045;-68
2023/04/13 05:11:53;;;;;;;12.45;7.30;;;22.80;51.50;;;;;;4860806;29;20053;-67
2023/04/13 05:14:20;;;;;;;12.82;8.00;;;22.70;51.40;;;;;;4861063;29;20090;-69
2023/04/13 05:16:46;;;;;;;11.00;8.05;;;22.70;53.20;;;;;;4841428;29;20073;-67
2023/04/13 05:19:23;;;;;;;10.90;8.63;;;22.80;53.20;;;;;;4841305;29;20527;-67
2023/04/13 05:22:10;;;;;;;11.18;8.35;;;22.70;53.20;;;;;;4841218;29;20052;-68
2023/04/13 05:24:43;;;;;;;12.00;8.85;;;22.70;52.30;;;;;;4841027;29;20049;-67
2023/04/13 05:27:12;;;;;;;9.77;7.95;;;22.70;51.90;;;;;;4838262;29;20077;-67
2023/04/13 05:29:39;;;;;;;13.07;9.63;;;22.70;54.10;;;;;;4841062;29;20056;-67
2023/04/13 05:32:05;;;;;;;14.20;10.02;;;22.70;52.40;;;;;;4840935;29;20399;-67
2023/04/13 05:34:32;;;;;;;14.50;9.60;;;22.70;51.80;;;;;;4840981;29;20045;-68
2023/04/13 05:37:09;;;;;;;12.20;9.15;;;22.70;51.20;;;;;;4841079;29;20053;-67
2023/04/13 05:39:35;;;;;;;12.00;8.80;;;22.80;50.00;;;;;;4841063;29;20076;-68
2023/04/13 05:42:01;;;;;;;10.18;8.00;;;22.60;48.00;;;;;;4840877;29;20046;-67
2023/04/13 05:44:29;;;;;;;13.13;8.25;;;22.50;48.30;;;;;;4840872;29;20054;-68
2023/04/13 05:46:56;;;;;;;12.52;8.27;;;22.60;48.50;;;;;;4828715;29;20045;-68
2023/04/13 05:49:22;;;;;;;17.60;8.80;;;22.60;49.20;;;;;;4860904;29;20421;-70
2023/04/13 05:51:50;;;;;;;12.40;7.53;;;22.70;58.80;;;;;;4860121;29;20546;-68
2023/04/13 05:54:17;;;;;;;11.32;7.75;;;22.80;59.60;;;;;;4825025;29;20198;-68
2023/04/13 05:56:47;;;;;;;11.70;7.32;;;22.90;59.30;;;;;;4825095;29;20054;-69
2023/04/13 05:59:14;;;;;;;12.02;7.65;;;22.90;58.90;;;;;;4825061;29;20050;-68
2023/04/13 06:01:40;;;;;;;11.10;7.18;;;22.90;58.80;;;;;;4825156;29;20187;-68
2023/04/13 06:04:08;;;;;;;11.23;7.30;;;23.00;58.50;;;;;;4825105;29;20693;-69
2023/04/13 06:06:34;;;;;;;9.63;6.43;;;23.10;58.70;;;;;;4824692;29;20454;-70
2023/04/13 06:09:01;;;;;;;11.77;7.00;;;23.00;58.60;;;;;;4825307;29;20054;-69
2023/04/13 06:11:27;;;;;;;12.75;7.90;;;23.10;58.70;;;;;;4820881;29;20060;-69
2023/04/13 06:13:53;;;;;;;14.88;7.85;;;23.20;58.40;;;;;;4829549;29;20054;-70
2023/04/13 06:16:20;;;;;;;11.23;6.97;;;23.20;58.60;;;;;;4819453;29;20049;-69
2023/04/13 06:18:46;;;;;;;8.30;5.88;;;23.10;58.90;;;;;;4839857;29;20038;-70
2023/04/13 06:21:12;;;;;;;11.10;8.27;;;23.10;60.40;;;;;;4822272;29;20478;-69
2023/04/13 06:23:38;;;;;;;9.95;7.53;;;23.20;58.20;;;;;;4806496;29;20038;-70
2023/04/13 06:26:13;;;;;;;10.30;7.05;;;23.20;57.80;;;;;;4820786;29;20062;-70
2023/04/13 06:28:53;;;;;;;8.85;5.82;;;23.10;59.40;;;;;;4823165;29;20035;-68
2023/04/13 06:31:22;;;;;;;9.93;7.65;;;23.30;60.10;;;;;;4855747;29;20040;-67
2023/04/13 06:33:49;;;;;;;9.90;7.25;;;23.20;58.70;;;;;;4842205;29;20410;-67
2023/04/13 06:36:21;;;;;;;13.25;7.03;;;23.30;56.10;;;;;;4856411;29;20403;-66
2023/04/13 06:38:47;;;;;;;10.10;7.78;;;23.30;56.70;;;;;;4842299;29;20485;-67
2023/04/13 06:41:13;;;;;;;12.20;9.02;;;23.40;56.10;;;;;;4853291;29;20030;-68
2023/04/13 06:43:42;;;;;;;11.32;8.82;;;23.60;56.70;;;;;;4859118;29;20030;-68
2023/04/13 06:46:15;;;;;;;13.50;9.75;;;23.70;57.00;;;;;;4859447;29;20076;-68
2023/04/13 06:48:45;;;;;;;17.55;9.93;;;23.90;53.90;;;;;;4859042;29;20033;-68
2023/04/13 06:51:12;;;;;;;7.45;5.88;;;23.90;55.50;;;;;;4858870;29;20524;-70
2023/04/13 06:53:40;;;;;;;14.88;8.02;;;23.80;57.90;;;;;;4859115;29;20048;-67
2023/04/13 06:56:07;;;;;;;11.38;8.07;;;23.80;56.60;;;;;;4859019;29;20041;-67
2023/04/13 06:58:35;;;;;;;10.73;8.20;;;23.80;55.20;;;;;;4859212;29;20557;-69
2023/04/13 07:01:01;;;;;;;11.52;8.65;;;23.80;52.60;;;;;;4857306;29;20041;-69
2023/04/13 07:03:30;;;;;;;9.00;5.75;;;23.80;52.90;;;;;;4858622;29;20049;-68
2023/04/13 07:05:57;;;;;;;11.88;8.68;;;23.70;54.00;;;;;;4842990;29;20694;-67
2023/04/13 07:08:23;;;;;;;11.63;7.95;;;24.10;52.90;;;;;;4860147;29;20041;-69
2023/04/13 07:10:54;;;;;;;10.02;5.82;;;23.70;54.10;;;;;;4858635;29;20096;-68
2023/04/13 07:13:31;;;;;;;11.52;8.43;;;23.70;52.80;;;;;;4858637;29;20116;-69
2023/04/13 07:15:57;;;;;;;9.13;6.30;;;23.80;52.70;;;;;;4858687;29;20041;-68
2023/04/13 07:18:24;;;;;;;10.38;8.18;;;23.90;52.60;;;;;;4855242;29;20045;-70
2023/04/13 07:20:50;;;;;;;9.70;6.38;;;23.90;52.70;;;;;;4859845;29;20050;-68
2023/04/13 07:23:19;;;;;;;13.10;8.40;;;23.90;53.40;;;;;;4858542;29;20034;-68
2023/04/13 07:25:46;;;;;;;12.35;7.75;;;23.90;51.00;;;;;;4858252;29;20053;-71
2023/04/13 07:28:18;;;;;;;9.50;7.43;;;23.90;50.40;;;;;;4858472;29;20047;-73
2023/04/13 07:30:45;;;;;;;8.38;6.18;;;23.80;53.00;;;;;;4857542;29;20116;-67
2023/04/13 07:33:12;;;;;;;9.77;7.50;;;23.90;53.40;;;;;;4858144;29;20044;-69
2023/04/13 07:35:39;;;;;;;14.35;7.22;;;23.90;53.60;;;;;;4859597;29;20109;-69
2023/04/13 07:38:06;;;;;;;9.93;7.45;;;23.90;53.70;;;;;;4858218;29;20134;-66
2023/04/13 07:40:34;;;;;;;9.63;6.57;;;24.00;52.50;;;;;;4858362;29;20029;-67
2023/04/13 07:43:03;;;;;;;10.73;6.93;;;24.00;54.10;;;;;;4858345;29;20041;-69
2023/04/13 07:45:34;;;;;;;7.68;6.22;;;24.00;54.70;;;;;;4858408;29;20046;-68
2023/04/13 07:48:01;;;;;;;7.63;5.50;;;24.10;55.00;;;;;;4857949;29;20041;-68
2023/04/13 07:50:28;;;;;;;8.40;6.72;;;24.10;54.90;;;;;;4843314;29;20077;-68
2023/04/13 07:52:54;;;;;;;7.70;6.03;;;24.00;54.10;;;;;;4857883;29;20382;-67
2023/04/13 07:55:22;;;;;;;8.68;5.10;;;24.10;54.40;;;;;;4838516;29;20137;-68
2023/04/13 07:57:50;;;;;;;7.72;6.18;;;24.10;55.50;;;;;;4807915;29;20073;-68
2023/04/13 08:00:19;;;;;;;7.53;5.68;;;24.20;53.40;;;;;;4823563;29;20402;-67
2023/04/13 08:02:48;;;;;;;7.53;5.13;;;24.10;56.80;;;;;;4838306;29;20814;-70
2023/04/13 08:05:18;;;;;;;7.53;4.53;;;24.10;56.70;;;;;;4823124;29;20530;-69
2023/04/13 08:07:45;;;;;;;6.13;5.40;;;24.30;56.70;;;;;;4823351;29;20498;-68
2023/04/13 08:10:12;;;;;;;8.40;6.30;;;24.30;56.00;;;;;;4823239;29;20037;-70
2023/04/13 08:12:38;;;;;;;7.65;5.53;;;24.20;56.30;;;;;;4823194;29;20049;-69
2023/04/13 08:15:05;;;;;;;7.68;4.97;;;24.10;56.20;;;;;;4823164;29;20593;-69
2023/04/13 08:17:31;;;;;;;5.60;4.60;;;24.20;55.60;;;;;;4823100;29;20045;-70
2023/04/13 08:19:59;;;;;;;7.60;5.15;;;24.20;56.80;;;;;;4827686;29;20050;-68
2023/04/13 08:22:26;;;;;;;13.95;4.65;;;24.30;56.60;;;;;;4820234;29;20042;-69
2023/04/13 08:24:52;;;;;;;8.00;4.68;;;24.30;57.60;;;;;;4804219;29;20065;-70
2023/04/13 08:27:18;;;;;;;6.72;5.43;;;24.20;57.40;;;;;;4804977;29;20054;-68
2023/04/13 08:29:45;;;;;;;5.60;4.95;;;24.30;57.10;;;;;;4804877;29;20041;-70
2023/04/13 08:32:11;;;;;;;6.10;5.40;;;24.30;56.00;;;;;;4825195;29;20121;-72
2023/04/13 08:34:38;;;;;;;7.65;5.45;;;24.30;57.30;;;;;;4840199;29;20092;-72
2023/04/13 08:37:04;;;;;;;10.18;5.72;;;24.40;56.50;;;;;;4840516;29;20573;-71
2023/04/13 08:39:33;;;;;;;10.23;7.88;;;24.30;57.10;;;;;;4839198;29;20042;-68
2023/04/13 08:42:00;;;;;;;13.05;6.07;;;24.30;57.70;;;;;;4839297;29;20034;-69
2023/04/13 08:44:32;;;;;;;8.23;5.88;;;24.30;56.80;;;;;;4842855;29;20042;-68
2023/04/13 08:46:59;;;;;;;5.47;4.32;;;24.30;57.60;;;;;;4842844;29;20046;-69
2023/04/13 08:49:31;;;;;;;4.28;3.30;;;24.50;57.90;;;;;;4828376;29;20048;-69
2023/04/13 08:52:14;;;;;;;6.78;4.78;;;24.40;58.10;;;;;;4842827;29;20539;-68
2023/04/13 08:54:41;;;;;;;8.13;6.13;;;24.40;58.10;;;;;;4842731;29;20402;-68
2023/04/13 08:57:15;;;;;;;6.90;5.38;;;24.50;51.80;;;;;;4843031;29;20045;-67
2023/04/13 08:59:43;;;;;;;7.63;4.72;;;24.50;49.70;;;;;;4842885;29;20034;-68
2023/04/13 09:02:10;;;;;;;4.53;3.60;;;24.50;48.80;;;;;;4844681;29;20038;-66
2023/04/13 09:04:49;;;;;;;5.30;4.25;;;24.60;47.60;;;;;;4842300;29;20062;-67
2023/04/13 09:07:26;;;;;;;5.43;3.95;;;24.70;48.40;;;;;;4842461;29;20317;-67
2023/04/13 09:09:58;;;;;;;4.30;3.90;;;24.70;56.50;;;;;;4842701;29;20106;-68
2023/04/13 09:12:32;;;;;;;6.57;3.72;;;24.80;57.00;;;;;;4842387;29;20116;-67
2023/04/13 09:14:58;;;;;;;4.20;3.17;;;24.70;57.40;;;;;;4822758;29;20078;-67
2023/04/13 09:17:32;;;;;;;4.82;3.70;;;24.70;58.60;;;;;;4825274;29;20046;-66
2023/04/13 09:20:21;;;;;;;4.18;3.35;;;24.90;58.90;;;;;;4819807;29;20047;-67
2023/04/13 09:22:51;;;;;;;3.10;2.78;;;24.80;58.00;;;;;;4805034;29;20043;-66
2023/04/13 09:25:27;;;;;;;4.20;3.58;;;24.90;58.50;;;;;;4819487;29;20150;-67
2023/04/13 09:27:54;;;;;;;6.05;3.25;;;24.80;58.90;;;;;;4822614;29;20126;-67
2023/04/13 09:30:22;;;;;;;4.45;3.60;;;25.00;59.00;;;;;;4822537;29;20054;-67
2023/04/13 09:33:03;;;;;;;5.57;3.78;;;24.80;59.20;;;;;;4822913;29;20046;-67
2023/04/13 09:35:31;;;;;;;3.92;2.80;;;24.90;58.90;;;;;;4822152;29;20487;-67
2023/04/13 09:37:58;;;;;;;3.70;3.28;;;25.00;58.80;;;;;;4807815;29;20075;-68
2023/04/13 09:40:28;;;;;;;5.43;3.50;;;24.90;59.10;;;;;;4807369;29;20042;-69
2023/04/13 09:42:59;;;;;;;5.95;3.70;;;25.00;59.10;;;;;;4807233;29;20042;-66
2023/04/13 09:45:36;;;;;;;5.15;3.85;;;25.00;56.30;;;;;;4797203;29;20061;-67
2023/04/13 09:48:04;;;;;;;6.93;4.53;;;25.00;50.80;;;;;;4842976;29;20064;-67
2023/04/13 09:50:32;;;;;;;5.43;4.90;;;25.00;53.20;;;;;;4843069;29;20376;-68
2023/04/13 09:53:03;;;;;;;6.55;4.93;;;25.00;52.40;;;;;;4843315;29;20033;-67
2023/04/13 09:55:33;;;;;;;7.95;4.32;;;25.10;48.90;;;;;;4842026;29;20043;-67
2023/04/13 09:58:12;;;;;;;5.78;4.65;;;25.00;47.10;;;;;;4842685;29;20557;-67
2023/04/13 10:00:42;;;;;;;7.13;5.32;;;24.90;46.40;;;;;;4841326;29;20034;-69
2023/04/13 10:03:13;;;;;;;6.32;5.60;;;24.70;45.80;;;;;;4842988;29;20106;-68
2023/04/13 10:05:41;;;;;;;4.97;4.03;;;24.80;45.90;;;;;;4841299;29;20093;-66
2023/04/13 10:08:08;;;;;;;4.68;4.25;;;24.70;46.90;;;;;;4842758;29;20562;-66
2023/04/13 10:10:38;;;;;;;5.90;3.97;;;24.70;46.50;;;;;;4842654;29;20065;-65
2023/04/13 10:13:20;;;;;;;4.20;3.80;;;24.70;45.90;;;;;;4842695;29;20042;-66
2023/04/13 10:16:31;;;;;;;4.60;4.05;;;24.80;47.10;;;;;;4841293;29;20042;-66
2023/04/13 10:19:08;;;;;;;7.70;4.80;;;24.80;56.80;;;;;;4840100;29;20133;-68
2023/04/13 10:21:41;;;;;;;6.53;3.50;;;24.70;57.00;;;;;;4840232;29;20038;-67
2023/04/13 10:24:11;;;;;;;6.85;3.50;;;24.80;57.10;;;;;;4841893;29;20042;-66
2023/04/13 10:26:39;;;;;;;6.25;3.60;;;24.80;57.00;;;;;;4842416;29;20129;-67
2023/04/13 10:29:07;;;;;;;5.07;3.75;;;24.80;57.00;;;;;;4842299;29;20403;-66
2023/04/13 10:31:39;;;;;;;6.82;4.50;;;24.80;56.70;;;;;;4842232;29;20045;-67
2023/04/13 10:34:09;;;;;;;4.28;2.95;;;24.80;57.00;;;;;;4842225;29;20049;-67
2023/04/13 10:36:43;;;;;;;6.68;4.25;;;24.80;56.90;;;;;;4842217;29;20034;-66
2023/04/13 10:39:09;;;;;;;5.72;4.13;;;24.70;57.00;;;;;;4842354;29;20170;-66
2023/04/13 10:41:36;;;;;;;8.35;4.03;;;24.80;57.50;;;;;;4841843;29;20037;-67
2023/04/13 10:44:07;;;;;;;4.47;3.47;;;24.70;57.90;;;;;;4824430;29;20058;-68
2023/04/13 10:46:34;;;;;;;4.97;4.40;;;24.90;59.40;;;;;;4842034;29;20042;-68
2023/04/13 10:49:02;;;;;;;7.25;4.25;;;25.00;60.40;;;;;;4842177;29;20487;-69
2023/04/13 10:51:39;;;;;;;5.72;4.38;;;24.90;58.70;;;;;;4841839;29;20040;-68
2023/04/13 10:54:06;;;;;;;5.78;4.15;;;25.00;58.70;;;;;;4842412;29;20098;-69
2023/04/13 10:56:32;;;;;;;7.38;5.30;;;25.00;58.50;;;;;;4841743;29;20091;-68
2023/04/13 10:58:58;;;;;;;9.27;4.82;;;24.80;58.50;;;;;;4839131;29;20053;-69
2023/04/13 11:01:26;;;;;;;5.25;3.90;;;25.00;58.70;;;;;;4820699;29;20137;-69
2023/04/13 11:03:53;;;;;;;5.90;4.00;;;24.70;58.60;;;;;;4820428;29;20142;-68
2023/04/13 11:06:19;;;;;;;8.18;4.10;;;24.90;58.80;;;;;;4820461;29;20117;-70
2023/04/13 11:08:45;;;;;;;8.05;3.88;;;24.80;58.60;;;;;;4830523;29;20125;-69
2023/04/13 11:11:11;;;;;;;6.70;4.60;;;24.80;58.70;;;;;;4839314;29;20204;-68
2023/04/13 11:13:47;;;;;;;5.65;4.22;;;24.70;58.20;;;;;;4826558;29;20156;-69
2023/04/13 11:16:13;;;;;;;6.05;4.53;;;24.80;58.50;;;;;;4820892;29;20089;-69
2023/04/13 11:18:40;;;;;;;6.43;3.83;;;24.80;58.30;;;;;;4820867;29;20506;-66
2023/04/13 11:21:16;;;;;;;4.68;4.07;;;24.80;57.40;;;;;;4802597;29;20110;-66
2023/04/13 11:23:51;;;;;;;5.50;4.07;;;24.60;57.80;;;;;;4802412;29;20074;-65
2023/04/13 11:26:18;;;;;;;4.90;4.13;;;24.70;57.80;;;;;;4795018;29;20091;-67
2023/04/13 11:28:45;;;;;;;6.50;4.00;;;24.60;58.30;;;;;;4820827;29;20588;-66
2023/04/13 11:31:12;;;;;;;5.40;4.35;;;24.60;58.50;;;;;;4820649;29;20515;-66
2023/04/13 11:33:38;;;;;;;7.20;4.13;;;24.60;55.60;;;;;;4820529;29;20081;-70
2023/04/13 11:36:06;;;;;;;4.95;3.92;;;24.50;58.80;;;;;;4827047;29;20046;-69
2023/04/13 11:38:32;;;;;;;4.68;4.03;;;24.60;59.00;;;;;;4838565;29;20050;-70
2023/04/13 11:41:02;;;;;;;5.75;3.40;;;24.50;58.40;;;;;;4838901;29;20061;-67
2023/04/13 11:43:28;;;;;;;6.47;3.55;;;24.50;58.60;;;;;;4838664;29;20471;-68
2023/04/13 11:45:54;;;;;;;4.72;3.15;;;24.50;58.60;;;;;;4840929;29;20090;-67
2023/04/13 11:48:21;;;;;;;7.13;4.85;;;24.50;59.40;;;;;;4841035;29;20120;-68
2023/04/13 11:50:48;;;;;;;4.88;4.25;;;24.40;59.30;;;;;;4840750;29;20038;-68
2023/04/13 11:53:15;;;;;;;4.78;3.80;;;24.50;62.40;;;;;;4840886;29;20037;-68
2023/04/13 11:55:42;;;;;;;5.13;4.05;;;24.50;61.60;;;;;;4839621;29;20057;-68
2023/04/13 11:58:10;;;;;;;6.68;4.85;;;24.80;60.90;;;;;;4841031;29;20118;-68
2023/04/13 12:00:38;;;;;;;5.57;3.55;;;24.40;59.20;;;;;;4840695;29;20038;-67
2023/04/13 12:03:12;;;;;;;7.05;3.95;;;24.50;56.50;;;;;;4839711;29;20069;-66
2023/04/13 12:05:38;;;;;;;4.10;3.65;;;24.50;58.40;;;;;;4840774;29;20140;-68
2023/04/13 12:08:04;;;;;;;6.45;4.28;;;24.50;59.70;;;;;;4840869;29;20038;-67
2023/04/13 12:10:35;;;;;;;5.15;3.97;;;24.40;59.20;;;;;;4840577;29;20045;-67
2023/04/13 12:13:08;;;;;;;4.80;3.60;;;24.60;58.40;;;;;;4840879;29;20493;-68
2023/04/13 12:15:36;;;;;;;5.13;3.85;;;24.50;59.30;;;;;;4840857;29;20042;-68
2023/04/13 12:18:03;;;;;;;5.28;3.70;;;24.40;59.20;;;;;;4840224;29;20394;-68
2023/04/13 12:20:37;;;;;;;3.40;3.10;;;24.50;59.20;;;;;;4836506;29;20114;-69
2023/04/13 12:23:23;;;;;;;4.22;3.45;;;24.50;59.20;;;;;;4856600;29;20136;-68
2023/04/13 12:26:03;;;;;;;7.35;4.13;;;24.60;58.50;;;;;;4825745;29;20060;-68
2023/04/13 12:28:32;;;;;;;6.32;3.80;;;24.60;58.30;;;;;;4823081;29;20155;-67
2023/04/13 12:31:01;;;;;;;4.30;3.50;;;24.50;57.20;;;;;;4837866;29;20072;-68
2023/04/13 12:33:27;;;;;;;5.18;3.65;;;24.50;58.00;;;;;;4838034;29;20041;-68
2023/04/13 12:35:53;;;;;;;5.97;4.13;;;24.60;58.40;;;;;;4838073;29;20553;-68
2023/04/13 12:38:19;;;;;;;5.50;3.53;;;24.50;57.80;;;;;;4837955;29;20045;-68
2023/04/13 12:40:45;;;;;;;4.30;3.25;;;24.50;58.20;;;;;;4837879;29;20046;-69
2023/04/13 12:43:13;;;;;;;8.43;3.92;;;24.50;58.60;;;;;;4837982;29;20053;-69
2023/04/13 12:45:39;;;;;;;5.53;3.92;;;24.40;58.40;;;;;;4837689;29;20126;-68
2023/04/13 12:48:07;;;;;;;5.82;4.00;;;24.40;58.00;;;;;;4837876;29;20050;-68
2023/04/13 12:50:33;;;;;;;4.68;3.63;;;24.40;57.70;;;;;;4838481;29;20087;-68
2023/04/13 12:52:59;;;;;;;4.82;3.70;;;24.40;56.10;;;;;;4839901;29;20042;-69